createdAt,value
2023-01-31T00:01:55.965Z,-1.26
2023-01-31T00:04:24.559Z,-1.25
2023-01-31T00:06:54.557Z,-1.26
2023-01-31T00:09:21.738Z,-1.22
2023-01-31T00:11:50.701Z,-1.26
2023-01-31T00:14:20.984Z,-1.32
2023-01-31T00:16:48.251Z,-1.27
2023-01-31T00:19:15.451Z,-1.25
2023-01-31T00:21:43.922Z,-1.20
2023-01-31T00:24:12.416Z,-1.25
2023-01-31T00:26:41.030Z,-1.37
2023-01-31T00:29:09.329Z,-1.33
2023-01-31T00:31:40.121Z,-1.33
2023-01-31T00:34:10.355Z,-1.35
2023-01-31T00:36:38.974Z,-1.40
2023-01-31T00:39:11.193Z,-1.36
2023-01-31T00:41:39.515Z,-1.36
2023-01-31T00:44:07.094Z,-1.29
2023-01-31T00:46:35.753Z,-1.33
2023-01-31T00:49:05.135Z,-1.30
2023-01-31T00:51:34.498Z,-1.29
2023-01-31T00:54:04.950Z,-1.32
2023-01-31T00:56:32.492Z,-1.27
2023-01-31T00:59:04.806Z,-1.29
2023-01-31T01:01:32.092Z,-1.33
2023-01-31T01:03:59.238Z,-1.33
2023-01-31T01:06:28.485Z,-1.23
2023-01-31T01:09:00.470Z,-1.33
2023-01-31T01:11:32.393Z,-1.46
2023-01-31T01:14:02.321Z,-1.45
2023-01-31T01:16:38.300Z,-1.48
2023-01-31T01:19:14.160Z,-1.39
2023-01-31T01:21:45.072Z,-1.28
2023-01-31T01:24:17.639Z,-1.29
2023-01-31T01:26:46.950Z,-0.95
2023-01-31T01:29:15.821Z,-0.93
2023-01-31T01:31:46.729Z,-1.05
2023-01-31T01:34:18.679Z,-1.25
2023-01-31T01:36:48.208Z,-1.20
2023-01-31T01:39:18.499Z,-1.12
2023-01-31T01:41:48.323Z,-1.06
2023-01-31T01:44:54.313Z,-1.18
2023-01-31T01:47:47.217Z,-1.19
2023-01-31T01:50:37.588Z,-1.26
2023-01-31T01:53:22.046Z,-1.35
2023-01-31T01:55:58.307Z,-1.33
2023-01-31T01:58:43.480Z,-1.40
2023-01-31T02:01:13.844Z,-1.42
2023-01-31T02:03:48.718Z,-1.37
2023-01-31T02:06:16.644Z,-1.41
2023-01-31T02:08:44.328Z,-1.50
2023-01-31T02:11:27.582Z,-1.50
2023-01-31T02:14:03.635Z,-1.43
2023-01-31T02:16:36.284Z,-1.37
2023-01-31T02:19:24.353Z,-1.49
2023-01-31T02:22:05.209Z,-1.49
2023-01-31T02:24:33.267Z,-1.54
2023-01-31T02:27:39.744Z,-1.52
2023-01-31T02:30:47.861Z,-1.54
2023-01-31T02:33:30.860Z,-1.47
2023-01-31T02:36:33.570Z,-1.30
2023-01-31T02:39:08.117Z,-1.23
2023-01-31T02:41:51.288Z,-1.13
2023-01-31T02:44:52.950Z,-1.21
2023-01-31T02:47:35.295Z,-1.29
2023-01-31T02:50:16.206Z,-1.36
2023-01-31T02:52:51.330Z,-1.40
2023-01-31T02:55:55.999Z,-1.51
2023-01-31T02:58:29.192Z,-1.61
2023-01-31T03:00:59.152Z,-1.51
2023-01-31T03:03:31.208Z,-1.51
2023-01-31T03:06:27.037Z,-1.56
2023-01-31T03:09:22.242Z,-1.59
2023-01-31T03:12:00.519Z,-1.66
2023-01-31T03:14:39.248Z,-1.72
2023-01-31T03:17:36.291Z,-1.68
2023-01-31T03:20:17.643Z,-1.77
2023-01-31T03:22:58.119Z,-1.65
2023-01-31T03:25:29.175Z,-1.66
2023-01-31T03:28:05.005Z,-1.78
2023-01-31T03:30:46.262Z,-1.74
2023-01-31T03:33:23.687Z,-1.68
2023-01-31T03:36:05.879Z,-1.68
2023-01-31T03:38:38.191Z,-1.80
2023-01-31T03:41:14.972Z,-1.69
2023-01-31T03:44:01.659Z,-1.77
2023-01-31T03:46:46.009Z,-1.73
2023-01-31T03:49:16.579Z,-1.87
2023-01-31T03:51:53.456Z,-1.90
2023-01-31T03:54:32.604Z,-1.81
2023-01-31T03:57:09.057Z,-1.88
2023-01-31T03:59:42.386Z,-1.77
2023-01-31T04:02:13.981Z,-1.91
2023-01-31T04:04:59.837Z,-1.86
2023-01-31T04:07:29.718Z,-1.85
2023-01-31T04:09:58.221Z,-1.58
2023-01-31T04:12:25.557Z,-1.81
2023-01-31T04:14:53.005Z,-1.99
2023-01-31T04:17:21.542Z,-1.97
2023-01-31T04:19:50.371Z,-2.01
2023-01-31T04:22:19.278Z,-2.04
2023-01-31T04:24:46.773Z,-1.97
2023-01-31T04:27:14.062Z,-1.97
2023-01-31T04:29:42.320Z,-1.95
2023-01-31T04:32:11.041Z,-2.01
2023-01-31T04:34:40.008Z,-2.01
2023-01-31T04:37:07.327Z,-2.04
2023-01-31T04:39:34.721Z,-2.04
2023-01-31T04:42:03.537Z,-1.93
2023-01-31T04:44:32.967Z,-2.02
2023-01-31T04:47:00.489Z,-2.05
2023-01-31T04:49:28.180Z,-1.98
2023-01-31T04:51:56.343Z,-2.06
2023-01-31T04:54:24.435Z,-2.03
2023-01-31T04:56:51.724Z,-2.09
2023-01-31T04:59:19.677Z,-1.96
2023-01-31T05:01:48.669Z,-2.04
2023-01-31T05:04:16.250Z,-2.03
2023-01-31T05:06:43.528Z,-2.02
2023-01-31T05:09:13.699Z,-1.98
2023-01-31T05:11:42.058Z,-2.04
2023-01-31T05:14:09.639Z,-2.02
2023-01-31T05:16:37.747Z,-2.08
2023-01-31T05:19:05.693Z,-2.08
2023-01-31T05:21:53.935Z,-2.05
2023-01-31T05:24:23.664Z,-2.14
2023-01-31T05:26:57.093Z,-2.11
2023-01-31T05:29:29.581Z,-2.11
2023-01-31T05:31:58.891Z,-2.10
2023-01-31T05:34:28.938Z,-2.12
2023-01-31T05:36:58.858Z,-2.03
2023-01-31T05:39:26.419Z,-2.08
2023-01-31T05:41:53.868Z,-2.06
2023-01-31T05:44:21.319Z,-2.02
2023-01-31T05:46:48.926Z,-2.03
2023-01-31T05:49:17.029Z,-2.11
2023-01-31T05:51:45.324Z,-2.19
2023-01-31T05:54:13.304Z,-2.21
2023-01-31T05:56:42.141Z,-2.21
2023-01-31T05:59:10.138Z,-2.31
2023-01-31T06:01:37.918Z,-2.27
2023-01-31T06:04:05.841Z,-2.33
2023-01-31T06:06:33.596Z,-2.39
2023-01-31T06:09:01.220Z,-2.32
2023-01-31T06:11:29.033Z,-2.33
2023-01-31T06:13:58.811Z,-2.27
2023-01-31T06:16:26.979Z,-2.30
2023-01-31T06:18:57.772Z,-2.35
2023-01-31T06:21:25.579Z,-2.36
2023-01-31T06:23:54.261Z,-2.31
2023-01-31T06:26:22.691Z,-2.32
2023-01-31T06:28:51.103Z,-2.26
2023-01-31T06:31:18.963Z,-2.28
2023-01-31T06:33:48.253Z,-2.25
2023-01-31T06:36:19.521Z,-2.30
2023-01-31T06:38:52.866Z,-2.31
2023-01-31T06:41:20.912Z,-2.25
2023-01-31T06:43:48.884Z,-2.28
2023-01-31T06:46:16.588Z,-2.24
2023-01-31T06:48:44.191Z,-2.23
2023-01-31T06:51:12.574Z,-2.19
2023-01-31T06:53:39.973Z,-2.21
2023-01-31T06:56:09.729Z,-2.10
2023-01-31T06:58:37.158Z,-2.09
2023-01-31T07:01:09.467Z,-2.18
2023-01-31T07:03:36.920Z,-2.10
2023-01-31T07:06:05.897Z,-2.06
2023-01-31T07:08:35.951Z,-2.09
2023-01-31T07:11:05.340Z,-2.00
2023-01-31T07:13:34.027Z,-1.90
2023-01-31T07:16:01.884Z,-1.83
2023-01-31T07:18:30.505Z,-1.80
2023-01-31T07:20:58.456Z,-1.82
2023-01-31T07:23:25.713Z,-1.70
2023-01-31T07:25:53.113Z,-1.67
2023-01-31T07:28:20.753Z,-1.56
2023-01-31T07:30:48.991Z,-1.40
2023-01-31T07:33:19.024Z,-1.27
2023-01-31T07:35:46.442Z,-1.24
2023-01-31T07:38:13.841Z,-1.10
2023-01-31T07:40:41.261Z,-1.08
2023-01-31T07:43:08.799Z,-1.02
2023-01-31T07:45:38.133Z,-0.93
2023-01-31T07:48:06.634Z,-0.90
2023-01-31T07:50:36.559Z,-0.82
2023-01-31T07:53:03.832Z,-0.77
2023-01-31T07:55:31.159Z,-0.62
2023-01-31T07:57:58.671Z,-0.48
2023-01-31T08:00:44.930Z,-0.37
2023-01-31T08:03:33.932Z,-0.21
2023-01-31T08:06:10.321Z,0.04
2023-01-31T08:08:38.446Z,0.26
2023-01-31T08:11:06.245Z,0.52
2023-01-31T08:13:36.796Z,0.72
2023-01-31T08:16:06.156Z,0.94
2023-01-31T08:18:33.979Z,1.22
2023-01-31T08:21:02.036Z,1.53
2023-01-31T08:23:30.985Z,1.68
2023-01-31T08:26:02.427Z,1.70
2023-01-31T08:28:30.569Z,1.84
2023-01-31T08:31:08.240Z,2.11
2023-01-31T08:33:36.575Z,2.32
2023-01-31T08:36:15.293Z,2.92
2023-01-31T08:38:43.018Z,3.35
2023-01-31T08:41:10.576Z,3.81
2023-01-31T08:43:54.375Z,4.17
2023-01-31T08:46:23.943Z,4.47
2023-01-31T08:48:51.379Z,4.68
2023-01-31T08:51:18.697Z,4.88
2023-01-31T08:53:46.202Z,5.21
2023-01-31T08:56:14.503Z,5.45
2023-01-31T08:58:42.856Z,5.58
2023-01-31T09:01:18.291Z,5.84
2023-01-31T09:03:46.272Z,5.99
2023-01-31T09:06:17.752Z,6.23
2023-01-31T09:08:45.455Z,6.48
2023-01-31T09:11:17.161Z,6.46
2023-01-31T09:13:51.268Z,6.62
2023-01-31T09:16:19.033Z,6.80
2023-01-31T09:18:46.112Z,6.80
2023-01-31T09:21:14.957Z,7.21
2023-01-31T09:23:42.857Z,7.17
2023-01-31T09:26:13.745Z,7.33
2023-01-31T09:28:43.187Z,7.40
2023-01-31T09:31:12.244Z,7.46
2023-01-31T09:33:39.733Z,7.08
2023-01-31T09:36:10.984Z,7.39
2023-01-31T09:38:38.004Z,7.42
2023-01-31T09:41:06.782Z,7.87
2023-01-31T09:43:36.431Z,7.97
2023-01-31T09:46:04.848Z,7.91
2023-01-31T09:48:35.388Z,7.69
2023-01-31T09:51:04.369Z,7.49
2023-01-31T09:53:34.218Z,7.38
2023-01-31T09:56:04.319Z,7.70
2023-01-31T09:58:31.912Z,7.73
2023-01-31T10:00:59.036Z,7.75
2023-01-31T10:03:26.068Z,8.18
2023-01-31T10:05:58.469Z,8.42
2023-01-31T10:08:44.457Z,8.56
2023-01-31T10:11:18.642Z,8.59
2023-01-31T10:13:54.639Z,8.66
2023-01-31T10:16:26.172Z,8.14
2023-01-31T10:19:07.707Z,8.37
2023-01-31T10:21:39.428Z,8.72
2023-01-31T10:24:26.404Z,8.93
2023-01-31T10:26:57.296Z,8.63
2023-01-31T10:29:29.460Z,8.71
2023-01-31T10:32:11.250Z,8.34
2023-01-31T10:34:41.181Z,9.06
2023-01-31T10:37:11.333Z,8.69
2023-01-31T10:39:47.280Z,9.17
2023-01-31T10:42:29.165Z,9.03
2023-01-31T10:45:08.359Z,8.74
2023-01-31T10:47:36.939Z,9.00
2023-01-31T10:50:15.395Z,8.84
2023-01-31T10:53:05.927Z,8.80
2023-01-31T10:55:45.173Z,8.79
2023-01-31T10:58:14.657Z,8.66
2023-01-31T11:00:41.956Z,9.87
2023-01-31T11:03:11.317Z,9.72
2023-01-31T11:05:43.917Z,9.39
2023-01-31T11:08:20.703Z,9.52
2023-01-31T11:10:52.244Z,9.37
2023-01-31T11:13:19.385Z,9.05
2023-01-31T11:15:48.296Z,9.00
2023-01-31T11:18:25.269Z,9.00
2023-01-31T11:20:52.390Z,9.02
2023-01-31T11:23:22.553Z,8.96
2023-01-31T11:25:50.460Z,9.14
2023-01-31T11:28:22.567Z,8.77
2023-01-31T11:30:51.479Z,8.69
2023-01-31T11:33:37.484Z,8.68
2023-01-31T11:36:11.584Z,8.92
2023-01-31T11:38:38.731Z,9.09
2023-01-31T11:41:29.304Z,9.16
2023-01-31T11:44:11.969Z,9.15
2023-01-31T11:46:50.201Z,9.21
2023-01-31T11:49:22.879Z,9.23
2023-01-31T11:51:50.329Z,9.27
2023-01-31T11:54:22.602Z,9.36
2023-01-31T11:56:49.912Z,9.08
2023-01-31T11:59:20.242Z,9.08
2023-01-31T12:01:49.077Z,9.20
2023-01-31T12:04:18.318Z,9.20
2023-01-31T12:06:56.272Z,9.30
2023-01-31T12:09:25.326Z,9.36
2023-01-31T12:11:57.208Z,9.41
2023-01-31T12:14:25.162Z,9.37
2023-01-31T12:16:57.269Z,9.46
2023-01-31T12:19:31.009Z,9.56
2023-01-31T12:22:07.369Z,9.68
2023-01-31T12:24:40.541Z,9.72
2023-01-31T12:27:13.827Z,9.77
2023-01-31T12:30:09.278Z,9.73
2023-01-31T12:32:54.952Z,9.76
2023-01-31T12:35:22.613Z,9.69
2023-01-31T12:37:56.683Z,9.73
2023-01-31T12:40:33.706Z,9.76
2023-01-31T12:43:02.960Z,9.68
2023-01-31T12:45:36.253Z,9.63
2023-01-31T12:48:22.311Z,9.70
2023-01-31T12:50:53.497Z,9.63
2023-01-31T12:53:34.685Z,9.66
2023-01-31T12:56:13.819Z,9.77
2023-01-31T12:59:02.975Z,9.59
2023-01-31T13:01:57.620Z,9.58
2023-01-31T13:04:39.213Z,9.64
2023-01-31T13:07:12.511Z,9.77
2023-01-31T13:09:39.650Z,9.94
2023-01-31T13:12:14.404Z,10.00
2023-01-31T13:14:44.357Z,9.93
2023-01-31T13:17:17.404Z,9.94
2023-01-31T13:19:53.358Z,10.10
2023-01-31T13:22:26.935Z,10.06
2023-01-31T13:25:00.539Z,10.01
2023-01-31T13:27:31.183Z,9.95
2023-01-31T13:30:08.441Z,9.95
2023-01-31T13:32:39.052Z,10.17
2023-01-31T13:35:12.371Z,10.22
2023-01-31T13:37:41.762Z,10.24
2023-01-31T13:40:22.913Z,10.15
2023-01-31T13:42:50.739Z,10.31
2023-01-31T13:45:27.266Z,10.16
2023-01-31T13:47:59.074Z,10.12
2023-01-31T13:50:29.086Z,10.18
2023-01-31T13:52:58.389Z,10.20
2023-01-31T13:55:42.607Z,10.29
2023-01-31T13:58:21.422Z,10.27
2023-01-31T14:00:59.436Z,10.19
2023-01-31T14:03:26.765Z,10.28
2023-01-31T14:06:01.316Z,10.43
2023-01-31T14:08:31.557Z,10.26
2023-01-31T14:11:00.535Z,10.22
2023-01-31T14:13:33.762Z,10.17
2023-01-31T14:16:01.459Z,10.21
2023-01-31T14:18:37.682Z,10.28
2023-01-31T14:21:23.414Z,10.16
2023-01-31T14:23:50.595Z,10.12
2023-01-31T14:26:50.120Z,10.08
2023-01-31T14:29:22.106Z,9.97
2023-01-31T14:31:50.332Z,9.90
2023-01-31T14:34:25.838Z,10.14
2023-01-31T14:37:01.678Z,9.94
2023-01-31T14:39:44.196Z,9.89
2023-01-31T14:42:28.812Z,9.82
2023-01-31T14:45:16.541Z,9.80
2023-01-31T14:48:02.510Z,9.81
2023-01-31T14:50:32.586Z,9.84
2023-01-31T14:53:16.055Z,9.72
2023-01-31T14:55:56.095Z,9.66
2023-01-31T14:58:25.845Z,9.62
2023-01-31T15:00:58.440Z,9.67
2023-01-31T15:54:15.353Z,8.59
2023-01-31T15:56:43.310Z,8.68
2023-01-31T15:59:12.478Z,8.57
2023-01-31T16:01:39.908Z,8.39
2023-01-31T16:04:07.377Z,8.33
2023-01-31T16:06:36.077Z,8.34
2023-01-31T16:09:05.069Z,8.36
2023-01-31T16:11:34.230Z,8.34
2023-01-31T16:14:07.703Z,8.17
2023-01-31T16:16:36.202Z,8.11
2023-01-31T16:19:04.336Z,7.87
2023-01-31T16:21:34.809Z,7.79
2023-01-31T16:24:11.264Z,7.83
2023-01-31T16:26:39.932Z,7.80
2023-01-31T16:29:09.394Z,7.82
2023-01-31T16:31:44.193Z,7.63
2023-01-31T16:34:20.863Z,7.42
2023-01-31T16:36:51.208Z,7.29
2023-01-31T16:39:37.440Z,7.25
2023-01-31T16:42:23.701Z,7.09
2023-01-31T16:44:51.385Z,7.10
2023-01-31T16:47:55.359Z,7.01
2023-01-31T16:50:36.856Z,7.04
2023-01-31T16:53:27.114Z,7.01
2023-01-31T16:56:13.229Z,6.96
2023-01-31T16:58:57.128Z,6.80
2023-01-31T17:01:32.471Z,6.73
2023-01-31T17:04:06.264Z,6.70
2023-01-31T17:06:34.048Z,6.65
2023-01-31T17:09:03.116Z,6.65
2023-01-31T17:11:42.617Z,6.62
2023-01-31T17:14:11.215Z,6.60
2023-01-31T17:16:38.978Z,6.47
2023-01-31T17:19:06.253Z,6.61
2023-01-31T17:21:39.768Z,6.64
2023-01-31T17:24:10.783Z,6.55
2023-01-31T17:26:38.025Z,6.48
2023-01-31T17:29:05.221Z,6.31
2023-01-31T17:31:32.487Z,6.25
2023-01-31T17:33:59.643Z,6.24
2023-01-31T17:36:26.961Z,6.26
2023-01-31T17:38:54.223Z,6.27
2023-01-31T17:41:24.654Z,6.32
2023-01-31T17:43:52.285Z,6.28
2023-01-31T17:46:19.735Z,6.27
2023-01-31T17:48:47.168Z,6.13
2023-01-31T17:51:14.411Z,6.12
2023-01-31T17:53:49.471Z,6.08
2023-01-31T17:56:18.571Z,6.01
2023-01-31T17:58:45.983Z,5.80
2023-01-31T18:01:14.435Z,5.71
2023-01-31T18:03:41.991Z,5.59
2023-01-31T18:06:10.043Z,5.31
2023-01-31T18:08:37.721Z,5.15
2023-01-31T18:11:05.991Z,5.05
2023-01-31T18:13:33.169Z,4.76
2023-01-31T18:16:07.473Z,4.56
2023-01-31T18:18:35.735Z,4.48
2023-01-31T18:21:05.484Z,4.28
2023-01-31T18:23:33.011Z,4.20
2023-01-31T18:26:00.228Z,4.14
2023-01-31T18:28:27.584Z,4.09
2023-01-31T18:30:54.848Z,4.00
2023-01-31T18:33:24.077Z,3.87
2023-01-31T18:35:58.442Z,3.74
2023-01-31T18:38:27.068Z,3.71
2023-01-31T18:40:54.344Z,3.65
2023-01-31T18:43:22.134Z,3.51
2023-01-31T18:45:49.556Z,3.40
2023-01-31T18:48:16.882Z,3.36
2023-01-31T18:50:44.319Z,3.35
2023-01-31T18:53:11.655Z,3.26
2023-01-31T18:55:39.234Z,3.17
2023-01-31T18:58:07.106Z,3.14
2023-01-31T19:00:34.567Z,3.12
2023-01-31T19:03:02.257Z,3.01
2023-01-31T19:05:29.760Z,3.07
2023-01-31T19:07:58.478Z,3.00
2023-01-31T19:10:25.894Z,2.95
2023-01-31T19:12:53.329Z,2.89
2023-01-31T19:15:21.198Z,2.80
2023-01-31T19:17:48.720Z,2.74
2023-01-31T19:20:16.674Z,2.76
2023-01-31T19:22:44.913Z,2.73
2023-01-31T19:25:12.387Z,2.66
2023-01-31T19:27:40.456Z,2.61
2023-01-31T19:30:07.995Z,2.55
2023-01-31T19:32:35.104Z,2.50
2023-01-31T19:35:03.198Z,2.50
2023-01-31T19:37:31.796Z,2.47
2023-01-31T19:39:59.346Z,2.50
2023-01-31T19:42:28.155Z,2.30
2023-01-31T19:44:56.823Z,2.27
2023-01-31T19:47:25.149Z,2.23
2023-01-31T19:49:53.500Z,2.25
2023-01-31T19:52:23.570Z,2.27
2023-01-31T19:54:51.015Z,2.05
2023-01-31T19:57:19.682Z,2.05
2023-01-31T19:59:48.361Z,1.99
2023-01-31T20:02:16.442Z,1.96
2023-01-31T20:04:44.784Z,2.10
2023-01-31T20:07:12.374Z,1.86
2023-01-31T20:09:41.182Z,1.80
2023-01-31T20:12:10.671Z,1.85
2023-01-31T20:14:39.020Z,1.86
2023-01-31T20:17:07.603Z,1.86
2023-01-31T20:19:35.560Z,1.84
2023-01-31T20:22:03.960Z,2.02
2023-01-31T20:24:34.844Z,1.85
2023-01-31T20:27:02.450Z,1.79
2023-01-31T20:29:32.030Z,1.71
2023-01-31T20:32:01.409Z,1.76
2023-01-31T20:34:29.985Z,1.77
2023-01-31T20:37:01.217Z,1.60
2023-01-31T20:39:30.934Z,1.62
2023-01-31T20:42:00.648Z,1.69
2023-01-31T20:44:29.760Z,1.57
2023-01-31T20:46:59.120Z,1.60
2023-01-31T20:49:31.330Z,1.65
2023-01-31T20:51:59.798Z,1.65
2023-01-31T20:54:44.689Z,1.72
2023-01-31T20:57:12.272Z,1.72
2023-01-31T20:59:40.477Z,1.71
2023-01-31T21:02:10.714Z,1.61
2023-01-31T21:04:38.910Z,1.56
2023-01-31T21:07:06.714Z,1.54
2023-01-31T21:09:35.173Z,1.49
2023-01-31T21:12:03.240Z,1.44
2023-01-31T21:14:31.210Z,1.38
2023-01-31T21:16:58.969Z,1.34
2023-01-31T21:19:26.802Z,1.28
2023-01-31T21:21:54.613Z,1.30
2023-01-31T21:24:22.385Z,1.25
2023-01-31T21:26:51.587Z,1.24
2023-01-31T21:29:19.644Z,1.33
2023-01-31T21:31:47.342Z,1.37
2023-01-31T21:34:14.919Z,1.34
2023-01-31T21:36:44.841Z,1.35
2023-01-31T21:39:13.370Z,1.33
2023-01-31T21:41:59.669Z,1.29
2023-01-31T21:44:27.360Z,1.37
2023-01-31T21:46:55.420Z,1.33
2023-01-31T21:49:23.626Z,1.47
2023-01-31T21:51:51.049Z,1.29
2023-01-31T21:54:18.619Z,1.32
2023-01-31T21:56:46.131Z,1.31
2023-01-31T21:59:13.493Z,1.36
2023-01-31T22:01:40.954Z,1.42
2023-01-31T22:04:08.411Z,1.36
2023-01-31T22:06:37.583Z,1.31
2023-01-31T22:09:06.519Z,1.27
2023-01-31T22:11:35.424Z,1.23
2023-01-31T22:14:04.345Z,1.13
2023-01-31T22:16:31.584Z,1.14
2023-01-31T22:19:00.722Z,1.16
2023-01-31T22:21:29.307Z,1.03
2023-01-31T22:23:57.659Z,0.98
2023-01-31T22:26:26.485Z,0.97
2023-01-31T22:28:54.743Z,1.01
2023-01-31T22:31:22.751Z,1.03
2023-01-31T22:33:50.155Z,1.00
2023-01-31T22:36:17.683Z,0.91
2023-01-31T22:38:46.699Z,0.86
2023-01-31T22:41:17.595Z,0.86
2023-01-31T22:43:47.296Z,0.81
2023-01-31T22:46:16.432Z,0.78
2023-01-31T22:48:43.764Z,0.72
2023-01-31T22:51:12.711Z,0.72
2023-01-31T22:53:40.377Z,0.68
2023-01-31T22:56:10.110Z,0.71
2023-01-31T22:58:37.518Z,0.73
2023-01-31T23:01:11.273Z,0.75
2023-01-31T23:03:38.496Z,0.74
2023-01-31T23:06:06.126Z,0.68
2023-01-31T23:08:33.375Z,0.69
2023-01-31T23:11:09.035Z,0.72
2023-01-31T23:13:36.789Z,0.69
2023-01-31T23:16:04.764Z,0.73
2023-01-31T23:18:32.454Z,0.66
2023-01-31T23:21:10.948Z,0.55
2023-01-31T23:23:38.321Z,0.45
2023-01-31T23:26:05.911Z,0.36
2023-01-31T23:28:33.294Z,0.41
2023-01-31T23:31:00.851Z,0.45
2023-01-31T23:33:28.391Z,0.54
2023-01-31T23:35:55.931Z,0.49
2023-01-31T23:38:24.716Z,0.51
2023-01-31T23:40:52.635Z,0.51
2023-01-31T23:43:20.376Z,0.47
2023-01-31T23:45:48.145Z,0.43
2023-01-31T23:48:15.789Z,0.37
2023-01-31T23:50:43.241Z,0.33
2023-01-31T23:53:10.588Z,0.32
2023-01-31T23:55:37.811Z,0.25
2023-01-31T23:58:05.357Z,0.28
